createdAt,value
2022-09-04T00:02:24.765Z,101301.78
2022-09-04T00:04:52.533Z,101293.66
2022-09-04T00:07:19.132Z,101297.44
2022-09-04T00:09:45.535Z,101287.66
2022-09-04T00:12:11.801Z,101297.44
2022-09-04T00:14:38.422Z,101290.94
2022-09-04T00:17:05.625Z,101293.09
2022-09-04T00:19:32.092Z,101298.28
2022-09-04T00:21:58.383Z,101301.78
2022-09-04T00:24:24.708Z,101296.63
2022-09-04T00:26:51.423Z,101294.97
2022-09-04T00:29:18.176Z,101298.50
2022-09-04T00:31:44.723Z,101300.41
2022-09-04T00:34:11.372Z,101294.16
2022-09-04T00:36:37.698Z,101298.50
2022-09-04T00:39:04.108Z,101298.75
2022-09-04T00:41:30.436Z,101302.06
2022-09-04T00:43:56.950Z,101303.09
2022-09-04T00:46:23.341Z,101301.47
2022-09-04T00:48:49.902Z,101313.16
2022-09-04T00:51:16.294Z,101311.50
2022-09-04T00:53:42.617Z,101309.59
2022-09-04T00:56:09.108Z,101321.28
2022-09-04T00:58:35.479Z,101312.56
2022-09-04T01:01:02.019Z,101326.97
2022-09-04T01:03:28.674Z,101328.03
2022-09-04T01:05:57.652Z,101323.16
2022-09-04T01:08:24.075Z,101323.41
2022-09-04T01:10:50.595Z,101321.53
2022-09-04T01:13:17.213Z,101314.47
2022-09-04T01:15:43.598Z,101311.75
2022-09-04T01:18:10.003Z,101309.84
2022-09-04T01:20:36.449Z,101316.34
2022-09-04T01:23:02.718Z,101310.09
2022-09-04T01:25:29.173Z,101316.34
2022-09-04T01:27:55.943Z,101318.00
2022-09-04T01:30:22.274Z,101316.34
2022-09-04T01:32:48.602Z,101306.59
2022-09-04T01:35:14.920Z,101310.94
2022-09-04T01:37:41.366Z,101315.53
2022-09-04T01:40:07.737Z,101319.06
2022-09-04T01:42:34.016Z,101313.66
2022-09-04T01:45:00.566Z,101321.22
2022-09-04T01:47:26.894Z,101320.16
2022-09-04T01:49:53.333Z,101323.94
2022-09-04T01:52:19.706Z,101322.88
2022-09-04T01:54:46.017Z,101329.59
2022-09-04T01:57:12.326Z,101322.28
2022-09-04T01:59:38.654Z,101314.13
2022-09-04T02:02:05.427Z,101318.75
2022-09-04T02:04:31.834Z,101322.28
2022-09-04T02:06:58.332Z,101320.41
2022-09-04T02:09:25.410Z,101317.69
2022-09-04T02:11:57.015Z,101313.34
2022-09-04T02:14:23.865Z,101312.50
2022-09-04T02:16:50.338Z,101306.25
2022-09-04T02:19:16.803Z,101313.59
2022-09-04T02:21:43.226Z,101303.53
2022-09-04T02:24:09.900Z,101310.88
2022-09-04T02:26:36.230Z,101312.50
2022-09-04T02:29:02.541Z,101312.72
2022-09-04T02:31:29.304Z,101314.38
2022-09-04T02:33:55.859Z,101320.84
2022-09-04T02:36:22.340Z,101326.28
2022-09-04T02:38:48.738Z,101319.81
2022-09-04T02:41:15.172Z,101322.75
2022-09-04T02:43:41.487Z,101319.00
2022-09-04T02:46:07.780Z,101319.22
2022-09-04T02:48:34.092Z,101320.84
2022-09-04T02:51:00.482Z,101327.34
2022-09-04T02:53:26.789Z,101326.53
2022-09-04T02:55:53.092Z,101323.25
2022-09-04T02:58:19.617Z,101321.09
2022-09-04T03:00:46.164Z,101322.19
2022-09-04T03:03:12.548Z,101328.44
2022-09-04T03:05:38.926Z,101325.97
2022-09-04T03:08:05.319Z,101329.47
2022-09-04T03:10:31.850Z,101322.19
2022-09-04T03:12:58.153Z,101325.97
2022-09-04T03:15:24.496Z,101318.91
2022-09-04T03:17:51.054Z,101330.31
2022-09-04T03:20:19.838Z,101326.78
2022-09-04T03:22:46.447Z,101324.34
2022-09-04T03:25:12.754Z,101321.63
2022-09-04T03:27:39.586Z,101329.75
2022-09-04T03:30:06.010Z,101334.09
2022-09-04T03:32:32.332Z,101337.88
2022-09-04T03:34:58.908Z,101340.59
2022-09-04T03:37:25.459Z,101339.78
2022-09-04T03:39:51.812Z,101338.94
2022-09-04T03:42:18.204Z,101338.13
2022-09-04T03:44:44.598Z,101338.69
2022-09-04T03:47:10.924Z,101338.94
2022-09-04T03:49:38.946Z,101342.47
2022-09-04T03:52:05.281Z,101348.97
2022-09-04T03:54:31.635Z,101345.44
2022-09-04T03:56:58.055Z,101335.66
2022-09-04T03:59:24.524Z,101343.56
2022-09-04T04:01:50.833Z,101346.50
2022-09-04T04:04:17.300Z,101347.06
2022-09-04T04:11:41.375Z,101354.66
2022-09-04T04:14:09.893Z,101353.03
2022-09-04T04:16:36.289Z,101362.78
2022-09-04T04:19:04.314Z,101359.47
2022-09-04T04:21:30.619Z,101362.78
2022-09-04T04:23:56.984Z,101363.03
2022-09-04T04:26:23.485Z,101359.47
2022-09-04T04:28:49.825Z,101362.47
2022-09-04T04:31:16.304Z,101370.34
2022-09-04T04:33:42.691Z,101370.59
2022-09-04T04:36:09.032Z,101371.41
2022-09-04T04:38:35.422Z,101377.41
2022-09-04T04:41:01.736Z,101383.34
2022-09-04T04:43:28.179Z,101382.25
2022-09-04T04:45:54.479Z,101378.97
2022-09-04T04:48:20.780Z,101385.81
2022-09-04T04:50:47.381Z,101381.44
2022-09-04T04:53:13.707Z,101388.75
2022-09-04T04:55:40.042Z,101384.97
2022-09-04T04:58:06.320Z,101393.34
2022-09-04T05:00:33.883Z,101397.97
2022-09-04T05:03:00.313Z,101389.84
2022-09-04T05:05:26.780Z,101393.63
2022-09-04T05:07:53.285Z,101401.75
2022-09-04T05:10:20.185Z,101402.56
2022-09-04T05:12:47.616Z,101405.03
2022-09-04T05:15:13.942Z,101409.88
2022-09-04T05:17:40.285Z,101412.84
2022-09-04T05:20:07.079Z,101417.19
2022-09-04T05:22:34.398Z,101429.91
2022-09-04T05:25:01.193Z,101426.97
2022-09-04T05:27:27.600Z,101435.09
2022-09-04T05:29:53.898Z,101425.88
2022-09-04T05:32:20.508Z,101434.03
2022-09-04T05:34:47.034Z,101435.94
2022-09-04T05:37:13.439Z,101436.16
2022-09-04T05:39:39.815Z,101438.88
2022-09-04T05:42:06.993Z,101436.41
2022-09-04T05:44:33.349Z,101439.72
2022-09-04T05:46:59.971Z,101443.47
2022-09-04T05:49:26.404Z,101437.25
2022-09-04T05:51:52.912Z,101447.00
2022-09-04T05:54:19.310Z,101447.00
2022-09-04T05:56:46.156Z,101447.25
2022-09-04T05:59:12.643Z,101455.16
2022-09-04T06:01:39.099Z,101453.50
2022-09-04T06:04:05.716Z,101469.78
2022-09-04T06:06:32.033Z,101461.88
2022-09-04T06:08:58.674Z,101468.13
2022-09-04T06:11:25.146Z,101476.00
2022-09-04T06:13:51.558Z,101470.81
2022-09-04T06:16:17.953Z,101483.34
2022-09-04T06:18:44.377Z,101487.69
2022-09-04T06:21:10.702Z,101486.84
2022-09-04T06:23:39.250Z,101490.63
2022-09-04T06:26:05.601Z,101492.28
2022-09-04T06:28:31.867Z,101486.84
2022-09-04T06:30:58.305Z,101491.47
2022-09-04T06:33:24.752Z,101496.91
2022-09-04T06:35:51.154Z,101490.63
2022-09-04T06:38:17.644Z,101499.59
2022-09-04T06:40:44.210Z,101487.69
2022-09-04T06:43:10.746Z,101484.13
2022-09-04T06:45:37.752Z,101487.69
2022-09-04T06:48:04.438Z,101487.69
2022-09-04T06:50:31.390Z,101493.13
2022-09-04T06:53:01.033Z,101495.81
2022-09-04T06:55:30.030Z,101498.53
2022-09-04T06:57:56.424Z,101496.66
2022-09-04T07:00:25.307Z,101508.31
2022-09-04T07:02:51.934Z,101507.50
2022-09-04T07:05:18.407Z,101502.88
2022-09-04T07:07:45.805Z,101509.13
2022-09-04T07:10:12.135Z,101512.41
2022-09-04T07:12:38.529Z,101507.22
2022-09-04T07:15:05.088Z,101506.44
2022-09-04T07:17:31.577Z,101499.38
2022-09-04T07:19:58.153Z,101502.06
2022-09-04T07:22:24.643Z,101509.13
2022-09-04T07:24:51.030Z,101509.94
2022-09-04T07:27:17.624Z,101511.00
2022-09-04T07:29:44.136Z,101507.50
2022-09-04T07:32:10.495Z,101518.91
2022-09-04T07:34:37.018Z,101522.69
2022-09-04T07:37:03.369Z,101518.06
2022-09-04T07:39:29.709Z,101520.78
2022-09-04T07:41:56.396Z,101523.78
2022-09-04T07:44:23.040Z,101531.91
2022-09-04T07:46:49.528Z,101534.84
2022-09-04T07:49:15.974Z,101527.44
2022-09-04T07:51:42.641Z,101529.31
2022-09-04T07:54:08.957Z,101530.31
2022-09-04T07:56:35.527Z,101533.00
2022-09-04T07:59:01.823Z,101545.25
2022-09-04T08:01:28.329Z,101540.91
2022-09-04T08:03:55.003Z,101534.41
2022-09-04T08:06:21.672Z,101539.34
2022-09-04T08:08:48.627Z,101540.44
2022-09-04T08:11:15.119Z,101543.16
2022-09-04T08:13:41.888Z,101547.81
2022-09-04T08:16:08.564Z,101539.69
2022-09-04T08:18:34.990Z,101548.66
2022-09-04T08:21:01.591Z,101540.28
2022-09-04T08:23:28.013Z,101548.19
2022-09-04T08:25:54.547Z,101545.47
2022-09-04T08:28:21.232Z,101542.75
2022-09-04T08:30:47.747Z,101540.59
2022-09-04T08:33:14.131Z,101551.44
2022-09-04T08:35:40.502Z,101549.56
2022-09-04T08:38:06.911Z,101560.16
2022-09-04T08:40:33.962Z,101555.81
2022-09-04T08:43:00.692Z,101557.44
2022-09-04T08:45:27.063Z,101567.25
2022-09-04T08:47:53.361Z,101561.81
2022-09-04T08:52:46.240Z,101565.09
2022-09-04T08:55:12.614Z,101567.25
2022-09-04T08:57:39.143Z,101568.03
2022-09-04T09:00:05.713Z,101565.09
2022-09-04T09:02:32.113Z,101559.66
2022-09-04T09:04:58.557Z,101559.09
2022-09-04T09:07:24.899Z,101559.66
2022-09-04T09:09:51.296Z,101561.31
2022-09-04T09:12:17.613Z,101562.16
2022-09-04T09:14:43.884Z,101562.16
2022-09-04T09:17:10.226Z,101564.84
2022-09-04T09:19:36.756Z,101571.91
2022-09-04T09:22:05.266Z,101562.97
2022-09-04T09:24:31.591Z,101560.00
2022-09-04T09:26:59.372Z,101560.84
2022-09-04T09:29:25.739Z,101561.66
2022-09-04T09:31:53.290Z,101558.97
2022-09-04T09:34:19.864Z,101566.03
2022-09-04T09:36:46.252Z,101560.38
2022-09-04T09:39:12.554Z,101555.75
2022-09-04T09:41:40.009Z,101549.53
2022-09-04T09:44:06.475Z,101554.09
2022-09-04T09:46:32.852Z,101547.38
2022-09-04T09:48:59.370Z,101552.25
2022-09-04T09:51:25.781Z,101541.16
2022-09-04T09:53:52.323Z,101548.22
2022-09-04T09:56:20.146Z,101539.00
2022-09-04T09:58:46.529Z,101533.59
2022-09-04T10:01:13.086Z,101527.91
2022-09-04T10:03:39.580Z,101531.47
2022-09-04T10:06:06.500Z,101534.97
2022-09-04T10:08:36.150Z,101536.63
2022-09-04T10:11:03.037Z,101538.53
2022-09-04T10:13:30.481Z,101532.28
2022-09-04T10:15:57.273Z,101525.53
2022-09-04T10:18:23.634Z,101533.66
2022-09-04T10:20:49.958Z,101530.97
2022-09-04T10:23:16.263Z,101522.81
2022-09-04T10:25:42.622Z,101533.44
2022-09-04T10:28:09.319Z,101537.22
2022-09-04T10:30:35.752Z,101529.63
2022-09-04T10:33:02.342Z,101528.59
2022-09-04T10:35:28.779Z,101534.03
2022-09-04T10:37:55.109Z,101544.88
2022-09-04T10:40:21.461Z,101539.44
2022-09-04T10:42:47.914Z,101531.31
2022-09-04T10:45:14.376Z,101540.00
2022-09-04T10:47:42.561Z,101539.19
2022-09-04T10:50:09.250Z,101544.34
2022-09-04T10:52:35.581Z,101544.63
2022-09-04T10:55:02.015Z,101548.97
2022-09-04T10:57:28.562Z,101548.97
2022-09-04T10:59:58.996Z,101548.47
2022-09-04T11:02:25.850Z,101549.53
2022-09-04T11:04:52.199Z,101557.44
2022-09-04T11:07:18.554Z,101557.44
2022-09-04T11:09:44.950Z,101563.69
2022-09-04T11:12:11.615Z,101563.69
2022-09-04T11:14:38.171Z,101558.84
2022-09-04T11:17:04.705Z,101559.09
2022-09-04T11:19:31.141Z,101560.75
2022-09-04T11:21:57.585Z,101551.53
2022-09-04T11:24:24.562Z,101558.03
2022-09-04T11:26:51.073Z,101559.75
2022-09-04T11:29:18.628Z,101559.00
2022-09-04T11:31:45.039Z,101556.88
2022-09-04T11:34:11.345Z,101560.75
2022-09-04T11:36:37.742Z,101554.50
2022-09-04T11:39:04.478Z,101556.97
2022-09-04T11:41:30.944Z,101567.56
2022-09-04T11:43:57.536Z,101562.94
2022-09-04T11:46:23.961Z,101560.00
2022-09-04T11:48:50.897Z,101563.31
2022-09-04T11:51:17.336Z,101564.69
2022-09-04T11:53:43.687Z,101559.28
2022-09-04T11:56:10.051Z,101558.19
2022-09-04T11:58:36.530Z,101554.16
2022-09-04T12:01:03.646Z,101558.50
2022-09-04T12:03:30.459Z,101552.28
2022-09-04T12:05:58.354Z,101552.84
2022-09-04T12:08:24.724Z,101548.25
2022-09-04T12:10:51.120Z,101551.28
2022-09-04T12:13:18.126Z,101549.06
2022-09-04T12:15:44.529Z,101555.63
2022-09-04T12:18:11.136Z,101554.84
2022-09-04T12:20:37.500Z,101553.75
2022-09-04T12:23:03.822Z,101556.47
2022-09-04T12:25:30.538Z,101548.88
2022-09-04T12:27:57.028Z,101545.69
2022-09-04T12:30:23.404Z,101540.25
2022-09-04T12:32:49.674Z,101542.25
2022-09-04T12:35:16.131Z,101542.25
2022-09-04T12:37:42.549Z,101534.91
2022-09-04T12:40:09.025Z,101544.44
2022-09-04T12:42:35.614Z,101538.53
2022-09-04T12:45:02.285Z,101544.28
2022-09-04T12:47:31.370Z,101538.59
2022-09-04T12:49:57.841Z,101534.25
2022-09-04T12:52:24.256Z,101537.28
2022-09-04T12:54:50.669Z,101537.28
2022-09-04T12:57:17.141Z,101546.81
2022-09-04T12:59:43.713Z,101540.31
2022-09-04T13:02:10.443Z,101534.66
2022-09-04T13:04:37.841Z,101531.66
2022-09-04T13:07:07.127Z,101528.94
2022-09-04T13:09:42.871Z,101526.81
2022-09-04T13:12:19.724Z,101529.88
2022-09-04T13:14:46.056Z,101542.13
2022-09-04T13:17:12.480Z,101543.78
2022-09-04T13:19:38.866Z,101546.00
2022-09-04T13:22:05.322Z,101542.47
2022-09-04T13:24:32.093Z,101535.72
2022-09-04T13:26:58.525Z,101532.47
2022-09-04T13:29:25.606Z,101538.50
2022-09-04T13:31:52.130Z,101533.63
2022-09-04T13:34:19.425Z,101536.94
2022-09-04T13:36:47.638Z,101535.84
2022-09-04T13:39:14.266Z,101545.63
2022-09-04T13:41:40.724Z,101542.66
2022-09-04T13:44:07.113Z,101547.03
2022-09-04T13:46:33.820Z,101542.66
2022-09-04T13:49:00.376Z,101537.72
2022-09-04T13:51:27.353Z,101545.06
2022-09-04T13:53:53.980Z,101554.78
2022-09-04T13:56:20.432Z,101546.41
2022-09-04T13:58:47.670Z,101542.84
2022-09-04T14:01:14.302Z,101546.66
2022-09-04T14:03:40.711Z,101536.03
2022-09-04T14:06:07.322Z,101534.94
2022-09-04T14:08:33.628Z,101539.31
2022-09-04T14:10:59.964Z,101534.41
2022-09-04T14:13:26.521Z,101544.50
2022-09-04T14:15:53.187Z,101536.59
2022-09-04T14:18:19.547Z,101537.72
2022-09-04T14:20:46.097Z,101532.31
2022-09-04T14:23:12.431Z,101538.81
2022-09-04T14:25:38.940Z,101548.28
2022-09-04T14:28:06.760Z,101548.53
2022-09-04T14:30:33.119Z,101551.50
2022-09-04T14:33:01.725Z,101549.84
2022-09-04T14:35:30.281Z,101545.75
2022-09-04T14:37:56.657Z,101546.59
2022-09-04T14:40:23.626Z,101555.78
2022-09-04T14:42:50.172Z,101554.16
2022-09-04T14:45:16.620Z,101556.84
2022-09-04T14:47:42.972Z,101563.38
2022-09-04T14:50:09.628Z,101559.56
2022-09-04T14:52:39.667Z,101564.19
2022-09-04T14:55:06.450Z,101571.50
2022-09-04T14:57:32.737Z,101568.81
2022-09-04T14:59:59.057Z,101575.06
2022-09-04T15:02:25.381Z,101570.44
2022-09-04T15:04:51.707Z,101570.44
2022-09-04T15:07:18.215Z,101570.44
2022-09-04T15:09:46.235Z,101573.41
2022-09-04T15:12:24.156Z,101576.94
2022-09-04T15:14:52.453Z,101587.81
2022-09-04T15:17:20.186Z,101572.34
2022-09-04T15:19:46.447Z,101571.50
2022-09-04T15:22:12.748Z,101580.50
2022-09-04T15:24:39.106Z,101575.06
2022-09-04T15:27:05.517Z,101580.50
2022-09-04T15:29:31.833Z,101579.66
2022-09-04T15:31:58.279Z,101574.22
2022-09-04T15:34:24.682Z,101575.06
2022-09-04T15:36:51.272Z,101577.50
2022-09-04T15:39:19.465Z,101577.50
2022-09-04T15:41:45.738Z,101575.88
2022-09-04T15:44:12.070Z,101565.84
2022-09-04T15:46:38.498Z,101568.56
2022-09-04T15:49:04.957Z,101562.03
2022-09-04T15:51:31.304Z,101562.88
2022-09-04T15:53:57.762Z,101570.19
2022-09-04T15:56:24.067Z,101572.66
2022-09-04T15:58:50.526Z,101577.50
2022-09-04T16:01:17.420Z,101574.78
2022-09-04T16:03:43.974Z,101576.47
2022-09-04T16:06:10.310Z,101576.47
2022-09-04T16:08:36.777Z,101581.06
2022-09-04T16:11:03.434Z,101587.56
2022-09-04T16:13:29.760Z,101584.03
2022-09-04T16:15:57.251Z,101587.56
2022-09-04T16:18:26.227Z,101592.16
2022-09-04T16:20:52.592Z,101592.16
2022-09-04T16:23:18.947Z,101594.88
2022-09-04T16:25:45.432Z,101590.53
2022-09-04T16:28:13.818Z,101585.09
2022-09-04T16:30:40.160Z,101593.25
2022-09-04T16:33:20.560Z,101586.97
2022-09-04T16:35:53.227Z,101597.03
2022-09-04T16:38:23.897Z,101597.03
2022-09-04T16:40:52.053Z,101599.75
2022-09-04T16:43:18.756Z,101604.34
2022-09-04T16:45:45.166Z,101607.91
2022-09-04T16:48:14.495Z,101612.25
2022-09-04T16:50:57.925Z,101598.91
2022-09-04T16:53:27.438Z,101610.38
2022-09-04T16:55:53.749Z,101603.50
2022-09-04T16:58:20.154Z,101608.16
2022-09-04T17:00:56.609Z,101608.16
2022-09-04T17:03:26.404Z,101610.84
2022-09-04T17:05:52.838Z,101609.22
2022-09-04T17:08:19.482Z,101618.19
2022-09-04T17:10:45.864Z,101614.91
2022-09-04T17:13:12.782Z,101615.69
2022-09-04T17:15:39.656Z,101617.63
2022-09-04T17:18:14.852Z,101612.19
2022-09-04T17:21:09.649Z,101613.25
2022-09-04T17:29:01.177Z,101618.69
2022-09-04T17:29:12.272Z,101621.41
2022-09-04T17:29:28.109Z,101630.34
2022-09-04T17:31:46.794Z,101628.72
2022-09-04T17:40:35.546Z,101635.78
2022-09-04T17:40:42.385Z,101631.44
2022-09-04T17:40:51.888Z,101632.28
2022-09-04T17:42:32.233Z,101641.22
2022-09-04T17:44:58.830Z,101644.19
2022-09-04T17:47:25.248Z,101648.56
2022-09-04T17:49:52.052Z,101656.72
2022-09-04T17:52:18.533Z,101650.66
2022-09-04T17:54:49.248Z,101656.09
2022-09-04T17:57:15.822Z,101663.19
2022-09-04T17:59:45.802Z,101666.75
2022-09-04T18:02:12.343Z,101668.03
2022-09-04T18:04:38.922Z,101674.03
2022-09-04T18:07:29.942Z,101674.03
2022-09-04T18:09:52.106Z,101671.53
2022-09-04T18:12:18.589Z,101675.09
2022-09-04T18:14:45.013Z,101678.88
2022-09-04T18:17:14.750Z,101681.38
2022-09-04T18:19:41.252Z,101688.91
2022-09-04T18:22:26.803Z,101692.47
2022-09-04T18:24:54.162Z,101695.19
2022-09-04T18:27:20.585Z,101694.34
2022-09-04T18:34:29.594Z,101690.00
2022-09-04T18:37:07.259Z,101698.13
2022-09-04T18:37:20.414Z,101697.28
2022-09-04T18:38:06.527Z,101700.84
2022-09-04T18:40:42.965Z,101701.94
2022-09-04T18:50:23.025Z,101703.56
2022-09-04T18:50:33.814Z,101707.34
2022-09-04T18:50:46.232Z,101716.31
2022-09-04T18:51:38.700Z,101710.88
2022-09-04T18:54:05.394Z,101720.94
2022-09-04T18:56:31.772Z,101713.88
2022-09-04T18:58:58.082Z,101712.19
2022-09-04T19:01:27.417Z,101721.19
2022-09-04T19:03:54.059Z,101722.81
2022-09-04T19:06:20.657Z,101726.59
2022-09-04T19:08:47.580Z,101722.00
2022-09-04T19:11:20.817Z,101726.84
2022-09-04T19:13:47.906Z,101726.59
2022-09-04T19:16:14.324Z,101730.41
2022-09-04T19:18:40.741Z,101732.28
2022-09-04T19:21:07.240Z,101735.00
2022-09-04T19:23:35.650Z,101739.59
2022-09-04T19:26:02.005Z,101728.72
2022-09-04T19:28:28.386Z,101739.59
2022-09-04T19:30:54.732Z,101738.78
2022-09-04T19:33:21.331Z,101744.22
2022-09-04T19:35:47.818Z,101739.59
2022-09-04T19:44:50.323Z,101745.00
2022-09-04T19:46:05.992Z,101743.38
2022-09-04T19:46:18.489Z,101746.94
2022-09-04T19:46:40.109Z,101748.00
2022-09-04T19:50:07.985Z,101751.53
2022-09-04T19:53:34.662Z,101748.81
2022-09-04T19:54:41.954Z,101743.38
2022-09-04T19:57:32.394Z,101746.09
2022-09-04T20:00:31.143Z,101753.44
2022-09-04T20:02:46.417Z,101754.22
2022-09-04T20:05:12.868Z,101749.03
2022-09-04T20:07:41.610Z,101748.25
2022-09-04T20:10:08.089Z,101749.28
2022-09-04T20:12:34.480Z,101760.97
2022-09-04T20:15:00.832Z,101749.88
2022-09-04T20:17:27.217Z,101756.38
2022-09-04T20:19:53.808Z,101756.38
2022-09-04T20:22:20.209Z,101744.94
2022-09-04T20:24:59.845Z,101760.16
2022-09-04T20:27:28.805Z,101758.50
2022-09-04T20:29:55.470Z,101758.50
2022-09-04T20:32:21.973Z,101763.13
2022-09-04T20:34:48.518Z,101759.56
2022-09-04T20:37:18.571Z,101757.69
2022-09-04T20:39:45.090Z,101756.88
2022-09-04T20:42:11.492Z,101761.22
2022-09-04T20:44:51.179Z,101757.94
2022-09-04T20:52:42.793Z,101765.00
2022-09-04T20:53:00.564Z,101763.94
2022-09-04T20:53:07.623Z,101761.47
2022-09-04T20:55:37.286Z,101765.00
2022-09-04T21:03:08.212Z,101762.53
2022-09-04T21:03:24.845Z,101774.22
2022-09-04T21:03:44.606Z,101772.31
2022-09-04T21:06:11.186Z,101776.94
2022-09-04T21:08:37.574Z,101778.00
2022-09-04T21:11:03.920Z,101780.72
2022-09-04T21:13:50.210Z,101782.59
2022-09-04T21:16:16.548Z,101777.19
2022-09-04T21:18:42.921Z,101785.31
2022-09-04T21:21:11.377Z,101783.69
2022-09-04T21:23:37.658Z,101789.13
2022-09-04T21:26:03.954Z,101785.81
2022-09-04T21:28:30.318Z,101789.13
2022-09-04T21:30:56.630Z,101791.00
2022-09-04T21:33:27.682Z,101787.44
2022-09-04T21:35:56.063Z,101791.00
2022-09-04T21:38:26.914Z,101792.88
2022-09-04T21:40:53.296Z,101789.34
2022-09-04T21:43:19.741Z,101795.84
2022-09-04T21:45:46.305Z,101791.22
2022-09-04T21:48:18.407Z,101795.84
2022-09-04T21:50:49.969Z,101802.09
2022-09-04T21:53:18.840Z,101801.28
2022-09-04T21:58:27.851Z,101804.00
2022-09-04T22:02:37.798Z,101799.63
2022-09-04T22:02:42.822Z,101795.84
2022-09-04T22:04:04.591Z,101810.22
2022-09-04T22:07:20.885Z,101794.19
2022-09-04T22:13:40.217Z,101804.00
2022-09-04T22:13:46.216Z,101801.28
2022-09-04T22:14:50.379Z,101812.94
2022-09-04T22:17:16.801Z,101806.94
2022-09-04T22:19:43.160Z,101813.41
2022-09-04T22:22:09.504Z,101814.25
2022-09-04T22:24:41.029Z,101818.84
2022-09-04T22:27:07.828Z,101814.25
2022-09-04T22:29:39.692Z,101813.41
2022-09-04T22:32:06.541Z,101809.06
2022-09-04T22:34:39.329Z,101810.97
2022-09-04T22:37:05.824Z,101808.25
2022-09-04T22:39:32.245Z,101807.19
2022-09-04T22:41:58.670Z,101805.53
2022-09-04T22:44:25.081Z,101802.84
2022-09-04T22:46:51.557Z,101810.97
2022-09-04T22:49:17.911Z,101805.53
2022-09-04T22:51:44.306Z,101800.13
2022-09-04T22:54:10.649Z,101788.44
2022-09-04T22:56:36.993Z,101803.88
2022-09-04T22:59:07.654Z,101805.53
2022-09-04T23:01:49.863Z,101803.63
2022-09-04T23:04:16.352Z,101806.59
2022-09-04T23:09:34.205Z,101810.38
2022-09-04T23:13:47.122Z,101820.16
2022-09-04T23:13:49.256Z,101818.28
2022-09-04T23:15:08.566Z,101825.59
2022-09-04T23:17:35.374Z,101828.31
2022-09-04T23:26:33.668Z,101828.56
2022-09-04T23:26:48.444Z,101831.28
2022-09-04T23:26:49.024Z,101828.56
2022-09-04T23:28:28.134Z,101830.22
2022-09-04T23:30:55.074Z,101828.56
2022-09-04T23:33:28.069Z,101829.38
2022-09-04T23:35:55.208Z,101826.91
2022-09-04T23:38:21.640Z,101823.38
2022-09-04T23:40:48.018Z,101820.66
2022-09-04T23:43:14.452Z,101825.25
2022-09-04T23:45:53.879Z,101820.66
2022-09-04T23:48:27.466Z,101828.81
2022-09-04T23:50:53.910Z,101828.81
2022-09-04T23:53:20.376Z,101826.09
2022-09-04T23:55:49.337Z,101820.66
2022-09-04T23:58:16.448Z,101821.47
